Time;durP1;ratioP1;P1;durP2;ratioP2;P2;SDS_P1;SDS_P2;PMS_P1;PMS_P2;Temp;Humidity;BMP_temperature;BMP_pressure;BME280_temperature;BME280_humidity;BME280_pressure;Samples;Min_cycle;Max_cycle;Signal;HPM_P1;HPM_P2
2022/11/27 00:00:04;;;;;;;0.10;0.10;;;;;;;8.35;72.79;102489.63;5107069;28;20034;-77
2022/11/27 00:02:30;;;;;;;4.40;3.70;;;;;;;8.35;73.13;102482.59;5095954;28;20024;-78
2022/11/27 00:04:57;;;;;;;0.13;0.13;;;;;;;8.33;72.37;102476.41;5095640;28;20036;-78
2022/11/27 00:07:23;;;;;;;0.10;0.10;;;;;;;8.42;72.51;102475.66;5097356;28;20497;-78
2022/11/27 00:09:49;;;;;;;0.35;0.35;;;;;;;8.38;72.78;102461.50;5096150;28;20392;-78
2022/11/27 00:12:15;;;;;;;0.10;0.10;;;;;;;8.39;72.59;102455.34;5094887;28;20040;-78
2022/11/27 00:14:41;;;;;;;0.20;0.20;;;;;;;8.39;72.78;102450.06;5097080;27;20457;-78
2022/11/27 00:17:07;;;;;;;0.20;0.20;;;;;;;8.46;72.75;102455.44;5106333;28;20030;-78
2022/11/27 00:19:33;;;;;;;0.10;0.10;;;;;;;8.46;72.56;102451.13;5095411;28;20649;-78
2022/11/27 00:21:59;;;;;;;0.20;0.20;;;;;;;8.47;72.25;102447.56;5106184;28;20047;-78
2022/11/27 00:24:25;;;;;;;0.77;0.63;;;;;;;8.44;72.62;102442.22;5098699;28;20849;-77
2022/11/27 00:26:51;;;;;;;0.20;0.20;;;;;;;8.37;72.81;102438.63;5100282;28;20032;-78
2022/11/27 00:29:18;;;;;;;1.13;0.95;;;;;;;8.44;72.52;102442.22;5096981;28;20047;-78
2022/11/27 00:31:44;;;;;;;0.10;0.10;;;;;;;8.43;72.53;102429.88;5096050;28;20051;-78
2022/11/27 00:34:10;;;;;;;0.63;0.63;;;;;;;8.38;72.53;102435.09;5095693;28;20038;-78
2022/11/27 00:36:37;;;;;;;0.20;0.20;;;;;;;8.36;72.58;102443.84;5102589;28;20038;-78
2022/11/27 00:39:04;;;;;;;0.20;0.20;;;;;;;8.31;72.84;102443.81;5098809;28;20035;-78
2022/11/27 00:41:30;;;;;;;0.20;0.20;;;;;;;8.30;72.67;102452.59;5096166;28;20055;-78
2022/11/27 00:43:57;;;;;;;0.17;0.17;;;;;;;8.34;72.12;102451.75;5097747;28;20040;-77
2022/11/27 00:46:26;;;;;;;0.50;0.50;;;;;;;8.30;72.27;102442.03;5097933;28;20031;-78
2022/11/27 00:48:52;;;;;;;1.17;1.10;;;;;;;8.27;72.20;102428.75;5101822;28;20043;-78
2022/11/27 00:51:20;;;;;;;1.40;1.38;;;;;;;8.25;72.21;102419.94;5103152;28;20115;-78
2022/11/27 00:53:47;;;;;;;0.20;0.20;;;;;;;8.23;72.15;102411.09;5099809;28;20086;-78
2022/11/27 00:56:16;;;;;;;0.20;0.20;;;;;;;8.22;72.46;102409.31;5102184;28;20027;-77
2022/11/27 00:58:43;;;;;;;0.10;0.10;;;;;;;8.23;72.92;102401.41;5103482;28;20032;-78
2022/11/27 01:01:17;;;;;;;0.10;0.10;;;;;;;8.28;72.79;102409.41;5106671;28;20063;-77
2022/11/27 01:03:45;;;;;;;0.35;0.35;;;;;;;8.25;72.45;102409.38;5100251;28;20031;-78
2022/11/27 01:06:11;;;;;;;0.10;0.10;;;;;;;8.27;72.67;102412.91;5102716;28;20088;-78
2022/11/27 01:08:38;;;;;;;0.10;0.10;;;;;;;8.30;72.70;102418.25;5101585;28;20032;-78
2022/11/27 01:11:04;;;;;;;0.95;0.95;;;;;;;8.31;72.09;102419.13;5112769;28;20019;-77
2022/11/27 01:13:34;;;;;;;0.10;0.10;;;;;;;8.32;72.38;102400.66;5120711;28;20036;-78
2022/11/27 01:16:05;;;;;;;0.30;0.30;;;;;;;8.34;72.01;102403.34;5111457;28;20051;-78
2022/11/27 01:18:31;;;;;;;0.10;0.10;;;;;;;8.30;71.77;102391.84;5106275;28;20023;-77
2022/11/27 01:20:58;;;;;;;0.30;0.30;;;;;;;8.32;71.79;102387.47;5102279;28;20085;-78
2022/11/27 01:23:25;;;;;;;0.30;0.30;;;;;;;8.37;71.68;102388.44;5106410;28;20522;-77
2022/11/27 01:25:52;;;;;;;0.10;0.10;;;;;;;8.36;72.13;102397.22;5116737;28;20032;-78
2022/11/27 01:28:20;;;;;;;0.10;0.10;;;;;;;8.37;71.93;102399.00;5104773;28;20102;-78
2022/11/27 01:30:46;;;;;;;1.27;1.27;;;;;;;8.38;72.17;102390.19;5101622;28;20020;-78
2022/11/27 01:33:12;;;;;;;0.10;0.10;;;;;;;8.37;71.94;102382.25;5113933;28;20053;-78
2022/11/27 01:35:38;;;;;;;0.13;0.13;;;;;;;8.36;71.64;102375.19;5106165;28;20460;-78
2022/11/27 01:38:04;;;;;;;0.10;0.10;;;;;;;8.38;71.52;102370.81;5103243;28;20027;-78
2022/11/27 01:40:31;;;;;;;0.10;0.10;;;;;;;8.38;71.90;102366.41;5098251;28;20024;-78
2022/11/27 01:42:57;;;;;;;0.25;0.25;;;;;;;8.35;71.26;102358.47;5101377;28;20034;-78
2022/11/27 01:45:23;;;;;;;0.25;0.25;;;;;;;8.31;71.90;102356.66;5097076;28;20499;-78
2022/11/27 01:48:01;;;;;;;0.20;0.20;;;;;;;8.31;71.22;102339.91;5098485;28;20096;-78
2022/11/27 01:50:34;;;;;;;1.88;1.73;;;;;;;8.31;71.98;102340.81;5104311;28;20050;-78
2022/11/27 01:53:09;;;;;;;0.50;0.50;;;;;;;8.28;71.37;102335.47;5097493;28;20055;-77
2022/11/27 01:55:41;;;;;;;0.20;0.20;;;;;;;8.25;71.78;102341.59;5097161;28;20553;-78
2022/11/27 01:58:11;;;;;;;0.40;0.40;;;;;;;8.26;71.71;102345.13;5097233;28;20391;-77
2022/11/27 02:00:38;;;;;;;0.20;0.20;;;;;;;8.18;71.38;102338.88;5106310;28;20019;-78
2022/11/27 02:03:04;;;;;;;0.13;0.13;;;;;;;8.16;71.84;102337.94;5101548;28;20084;-77
2022/11/27 02:05:30;;;;;;;0.20;0.20;;;;;;;8.13;71.56;102340.56;5098407;28;20100;-76
2022/11/27 02:08:00;;;;;;;0.20;0.20;;;;;;;8.09;71.62;102327.31;5102289;28;20027;-76
2022/11/27 02:10:57;;;;;;;0.17;0.17;;;;;;;8.05;72.16;102317.56;5103738;28;20039;-77
2022/11/27 02:13:31;;;;;;;0.10;0.10;;;;;;;8.06;72.20;102313.16;5102969;28;20035;-78
2022/11/27 02:19:11;;;;;;;0.10;0.10;;;;;;;8.05;71.95;102321.94;5089096;27;20352;-77
2022/11/27 02:21:45;;;;;;;0.20;0.20;;;;;;;8.00;72.20;102324.53;5063825;28;20107;-77
2022/11/27 02:27:43;;;;;;;0.17;0.17;;;;;;;8.16;71.59;102324.75;5114665;27;20704;-77
2022/11/27 02:30:10;;;;;;;0.30;0.30;;;;;;;8.12;72.08;102322.94;5099394;28;20040;-76
2022/11/27 02:32:44;;;;;;;0.20;0.20;;;;;;;8.19;71.62;102324.81;5087676;28;20029;-77
2022/11/27 02:35:24;;;;;;;0.10;0.10;;;;;;;8.21;71.44;102328.34;5085680;28;20024;-78
2022/11/27 02:37:58;;;;;;;0.20;0.20;;;;;;;8.21;71.65;102333.63;5085743;28;20090;-78
2022/11/27 02:43:15;;;;;;;0.20;0.20;;;;;;;8.24;71.49;102342.47;5067857;28;20389;-76
2022/11/27 02:45:45;;;;;;;0.10;0.10;;;;;;;8.21;71.12;102329.25;5061030;28;20083;-77
2022/11/27 02:48:14;;;;;;;0.60;0.60;;;;;;;8.24;71.97;102317.84;5058937;28;20079;-77
2022/11/27 02:50:44;;;;;;;0.10;0.10;;;;;;;8.26;71.48;102316.97;5057418;28;20508;-77
2022/11/27 02:53:16;;;;;;;0.20;0.20;;;;;;;8.34;71.46;102319.72;5049224;28;20021;-78
2022/11/27 02:55:44;;;;;;;0.20;0.20;;;;;;;8.32;71.03;102316.16;5049766;28;20045;-77
2022/11/27 02:58:14;;;;;;;0.20;0.20;;;;;;;8.38;71.61;102308.31;5046981;28;20037;-78
2022/11/27 03:00:44;;;;;;;0.20;0.20;;;;;;;8.33;70.71;102307.38;5045471;28;20036;-77
2022/11/27 03:03:15;;;;;;;0.10;0.10;;;;;;;8.34;71.56;102309.16;5052409;28;20055;-77
2022/11/27 03:05:44;;;;;;;0.13;0.13;;;;;;;8.37;71.15;102303.03;5048336;28;20145;-77
2022/11/27 03:08:40;;;;;;;0.20;0.20;;;;;;;8.41;71.45;102295.16;5044555;28;20036;-77
2022/11/27 03:11:10;;;;;;;0.30;0.30;;;;;;;8.43;71.31;102288.13;5043580;28;20033;-76
2022/11/27 03:13:42;;;;;;;0.10;0.10;;;;;;;8.44;70.65;102294.31;5047356;28;20100;-76
2022/11/27 03:16:35;;;;;;;0.20;0.20;;;;;;;8.53;71.15;102277.72;5046846;28;20029;-76
2022/11/27 03:19:15;;;;;;;0.15;0.15;;;;;;;8.50;70.37;102293.50;5045157;28;20029;-77
2022/11/27 03:21:48;;;;;;;0.20;0.20;;;;;;;8.53;70.54;102294.44;5048008;28;20506;-77
2022/11/27 03:24:14;;;;;;;0.15;0.15;;;;;;;8.55;70.68;102286.56;5044174;28;20044;-77
2022/11/27 03:26:42;;;;;;;0.10;0.10;;;;;;;8.59;70.85;102288.34;5046976;28;20029;-77
2022/11/27 03:29:13;;;;;;;0.20;0.20;;;;;;;8.61;70.62;102283.09;5043819;28;20110;-76
2022/11/27 03:31:40;;;;;;;0.13;0.13;;;;;;;8.66;70.20;102277.00;5045488;28;20100;-77
2022/11/27 03:34:07;;;;;;;0.08;0.08;;;;;;;8.64;70.01;102280.50;5045257;28;20488;-77
2022/11/27 03:36:33;;;;;;;0.10;0.10;;;;;;;8.70;69.75;102275.28;5044535;28;20518;-77
2022/11/27 03:38:59;;;;;;;0.10;0.10;;;;;;;8.65;69.61;102275.22;5046807;28;20041;-77
2022/11/27 03:44:21;;;;;;;0.10;0.10;;;;;;;8.75;69.50;102268.28;5069734;28;20391;-76
2022/11/27 03:47:11;;;;;;;0.10;0.10;;;;;;;8.81;69.39;102273.63;5072564;28;20040;-78
2022/11/27 03:55:13;;;;;;;0.20;0.20;;;;;;;8.82;69.19;102274.50;5064857;28;20411;-77
2022/11/27 03:57:55;;;;;;;0.20;0.20;;;;;;;8.85;69.43;102277.19;5068472;28;20028;-76
2022/11/27 04:00:22;;;;;;;0.10;0.10;;;;;;;8.83;69.26;102273.63;5056371;28;20508;-78
2022/11/27 04:02:52;;;;;;;0.20;0.20;;;;;;;8.85;69.32;102277.19;5051134;28;20048;-78
2022/11/27 04:05:19;;;;;;;0.10;0.10;;;;;;;8.80;68.94;102276.22;5052349;28;20468;-77
2022/11/27 04:07:46;;;;;;;0.10;0.10;;;;;;;8.83;69.12;102273.63;5053080;28;20025;-77
2022/11/27 04:10:13;;;;;;;0.13;0.13;;;;;;;8.85;69.69;102279.84;5051287;28;20488;-77
2022/11/27 04:12:39;;;;;;;0.10;0.10;;;;;;;8.86;68.70;102271.00;5053207;28;20167;-76
2022/11/27 04:15:06;;;;;;;0.10;0.10;;;;;;;8.86;68.79;102273.66;5056905;28;20408;-77
2022/11/27 04:17:32;;;;;;;0.10;0.10;;;;;;;8.85;69.01;102270.13;5052868;28;20029;-77
2022/11/27 04:19:58;;;;;;;0.30;0.30;;;;;;;8.85;68.42;102269.25;5051608;28;20524;-77
2022/11/27 04:22:24;;;;;;;0.20;0.20;;;;;;;8.88;68.88;102269.28;5052826;28;20037;-78
2022/11/27 04:24:51;;;;;;;0.17;0.17;;;;;;;8.87;68.79;102262.22;5052265;28;20052;-79
2022/11/27 04:27:17;;;;;;;0.30;0.30;;;;;;;8.87;68.27;102259.56;5050265;28;20033;-78
2022/11/27 04:29:43;;;;;;;0.68;0.68;;;;;;;8.84;67.96;102248.97;5051510;28;20470;-77
2022/11/27 04:32:09;;;;;;;0.20;0.20;;;;;;;8.89;68.36;102253.44;5052055;28;20452;-77
2022/11/27 04:34:35;;;;;;;0.30;0.30;;;;;;;8.89;68.17;102253.44;5053033;28;20112;-76
2022/11/27 04:37:02;;;;;;;0.45;0.45;;;;;;;8.90;68.18;102264.91;5051052;28;20036;-76
2022/11/27 04:39:28;;;;;;;1.48;1.38;;;;;;;8.93;68.63;102256.13;5054048;28;20556;-77
2022/11/27 04:41:54;;;;;;;0.10;0.10;;;;;;;8.92;67.92;102246.41;5053870;28;20040;-77
2022/11/27 04:44:21;;;;;;;0.10;0.10;;;;;;;8.94;68.47;102253.47;5051404;28;20029;-76
2022/11/27 04:46:48;;;;;;;0.10;0.10;;;;;;;8.95;68.50;102247.31;5052411;28;20048;-76
2022/11/27 04:49:14;;;;;;;0.20;0.20;;;;;;;9.00;68.66;102242.97;5051273;28;20112;-76
2022/11/27 04:51:41;;;;;;;0.20;0.20;;;;;;;8.92;69.14;102242.00;5052926;28;20037;-77
2022/11/27 04:54:07;;;;;;;0.20;0.20;;;;;;;8.94;69.25;102236.75;5050830;28;20025;-76
2022/11/27 04:56:33;;;;;;;0.10;0.10;;;;;;;8.90;68.92;102231.41;5052133;28;20064;-77
2022/11/27 04:58:59;;;;;;;0.10;0.10;;;;;;;8.87;69.48;102233.13;5056507;28;20047;-76
2022/11/27 05:01:25;;;;;;;0.17;0.17;;;;;;;8.84;69.64;102225.19;5073172;28;20022;-76
2022/11/27 05:03:51;;;;;;;3.10;1.73;;;;;;;8.80;69.46;102218.09;5067296;28;20037;-78
2022/11/27 05:06:17;;;;;;;0.20;0.20;;;;;;;8.77;70.12;102218.06;5040344;28;20056;-78
2022/11/27 05:08:44;;;;;;;0.10;0.10;;;;;;;8.75;69.94;102218.06;5038154;28;20079;-77
2022/11/27 05:11:12;;;;;;;0.10;0.10;;;;;;;8.69;70.38;102221.53;5040469;28;20592;-78
2022/11/27 05:13:38;;;;;;;0.10;0.10;;;;;;;8.71;70.02;102214.50;5038039;28;20036;-77
2022/11/27 05:16:05;;;;;;;0.20;0.20;;;;;;;8.68;70.42;102206.53;5034075;28;20043;-76
2022/11/27 05:18:31;;;;;;;0.38;0.38;;;;;;;8.65;70.66;102211.81;5038029;28;20156;-77
2022/11/27 05:21:01;;;;;;;0.10;0.10;;;;;;;8.64;70.46;102207.38;5035044;28;20484;-77
2022/11/27 05:23:28;;;;;;;0.10;0.10;;;;;;;8.66;70.33;102212.69;5037034;28;20029;-77
2022/11/27 05:25:54;;;;;;;0.20;0.20;;;;;;;8.65;70.39;102205.63;5038576;28;20022;-77
2022/11/27 05:28:21;;;;;;;0.47;0.47;;;;;;;8.64;70.96;102201.22;5037925;28;20064;-77
2022/11/27 05:30:48;;;;;;;0.32;0.32;;;;;;;8.66;70.66;102202.09;5039332;28;20029;-77
2022/11/27 05:33:15;;;;;;;0.10;0.10;;;;;;;8.67;70.54;102195.97;5039172;28;20072;-77
2022/11/27 05:35:41;;;;;;;0.13;0.13;;;;;;;8.63;70.71;102195.03;5040916;28;20404;-76
2022/11/27 05:38:08;;;;;;;0.10;0.10;;;;;;;8.63;70.99;102197.69;5041016;28;20124;-77
2022/11/27 05:40:35;;;;;;;0.25;0.25;;;;;;;8.61;71.04;102191.53;5043428;28;20028;-76
2022/11/27 05:43:01;;;;;;;0.10;0.10;;;;;;;8.64;70.68;102185.38;5039113;28;20455;-77
2022/11/27 05:45:27;;;;;;;0.20;0.20;;;;;;;8.60;71.02;102195.03;5039498;28;20319;-77
2022/11/27 05:47:53;;;;;;;2.20;0.80;;;;;;;8.62;70.69;102187.09;5036711;28;20381;-78
2022/11/27 05:50:19;;;;;;;0.10;0.10;;;;;;;8.59;71.19;102182.69;5039589;28;20596;-77
2022/11/27 05:52:45;;;;;;;0.20;0.20;;;;;;;8.61;70.87;102186.22;5039029;28;20396;-77
2022/11/27 05:55:11;;;;;;;0.20;0.20;;;;;;;8.54;71.35;102176.47;5035926;28;20586;-77
2022/11/27 05:57:37;;;;;;;0.40;0.40;;;;;;;8.58;71.19;102173.88;5039199;28;20025;-77
2022/11/27 06:00:05;;;;;;;0.10;0.10;;;;;;;8.58;71.17;102180.91;5033770;28;20469;-76
2022/11/27 06:02:31;;;;;;;0.30;0.30;;;;;;;8.59;71.39;102177.41;5038090;28;20030;-77
2022/11/27 06:04:57;;;;;;;0.13;0.13;;;;;;;8.54;71.37;102173.84;5037584;28;20057;-77
2022/11/27 06:07:23;;;;;;;0.20;0.20;;;;;;;8.58;70.92;102180.91;5040499;28;20516;-77
2022/11/27 06:09:49;;;;;;;0.10;0.10;;;;;;;8.56;71.62;102175.63;5038054;28;20038;-78
2022/11/27 06:12:15;;;;;;;0.20;0.20;;;;;;;8.52;71.56;102179.09;5038504;28;20029;-78
2022/11/27 06:14:41;;;;;;;0.10;0.10;;;;;;;8.56;71.57;102172.06;5043878;28;20048;-79
2022/11/27 06:17:07;;;;;;;0.30;0.30;;;;;;;8.52;71.28;102162.34;5052236;28;20045;-77
2022/11/27 06:19:34;;;;;;;0.10;0.10;;;;;;;8.54;71.74;102157.97;5056458;28;20496;-79
2022/11/27 06:22:00;;;;;;;0.10;0.10;;;;;;;8.55;71.27;102159.75;5041893;28;20073;-78
2022/11/27 06:24:26;;;;;;;0.10;0.10;;;;;;;8.52;71.25;102160.63;5038370;28;20121;-77
2022/11/27 06:26:52;;;;;;;0.73;0.25;;;;;;;8.55;71.33;102149.19;5039829;28;20045;-77
2022/11/27 06:29:18;;;;;;;0.20;0.20;;;;;;;8.55;71.90;102138.63;5041369;28;20036;-77
2022/11/27 06:31:44;;;;;;;0.20;0.20;;;;;;;8.55;71.38;102144.78;5038662;28;20091;-77
2022/11/27 06:34:11;;;;;;;0.73;0.73;;;;;;;8.52;71.41;102143.84;5036319;28;20045;-77
2022/11/27 06:36:39;;;;;;;0.10;0.10;;;;;;;8.57;71.73;102144.78;5036265;28;20095;-78
2022/11/27 06:39:07;;;;;;;4.80;0.95;;;;;;;8.52;71.76;102146.50;5039198;28;20032;-78
2022/11/27 06:41:33;;;;;;;0.20;0.20;;;;;;;8.49;72.03;102143.84;5037749;28;20056;-78
2022/11/27 06:44:00;;;;;;;0.10;0.10;;;;;;;8.53;71.98;102140.34;5039128;28;20071;-78
2022/11/27 06:46:28;;;;;;;0.52;0.52;;;;;;;8.47;72.10;102137.66;5039557;28;20041;-78
2022/11/27 06:48:55;;;;;;;0.20;0.20;;;;;;;8.52;71.89;102143.84;5037898;28;20341;-78
2022/11/27 06:51:24;;;;;;;0.20;0.20;;;;;;;8.52;72.09;102133.28;5038844;28;20378;-76
2022/11/27 06:53:51;;;;;;;0.10;0.10;;;;;;;8.53;71.93;102127.16;5037991;28;20044;-77
2022/11/27 06:56:21;;;;;;;0.10;0.10;;;;;;;8.53;71.59;102119.22;5042251;28;20082;-77
2022/11/27 06:58:50;;;;;;;0.10;0.10;;;;;;;8.54;71.54;102116.59;5035432;28;20041;-77
2022/11/27 07:01:17;;;;;;;0.40;0.40;;;;;;;8.57;71.59;102118.38;5045582;28;20061;-78
2022/11/27 07:03:43;;;;;;;0.22;0.22;;;;;;;8.57;71.87;102116.63;5035743;28;20021;-77
2022/11/27 07:06:12;;;;;;;0.10;0.10;;;;;;;8.58;71.93;102106.94;5041726;28;20082;-77
2022/11/27 07:08:38;;;;;;;0.10;0.10;;;;;;;8.56;71.96;102098.09;5038818;28;20043;-76
2022/11/27 07:11:09;;;;;;;0.15;0.15;;;;;;;8.58;72.15;102096.38;5032341;28;20033;-79
2022/11/27 07:13:35;;;;;;;0.10;0.10;;;;;;;8.56;71.72;102095.44;5039456;28;20033;-76
2022/11/27 07:16:03;;;;;;;0.10;0.10;;;;;;;8.58;71.77;102096.38;5035845;28;20048;-76
2022/11/27 07:18:33;;;;;;;0.10;0.10;;;;;;;8.59;71.97;102092.84;5040603;28;20032;-76
2022/11/27 07:20:59;;;;;;;0.10;0.10;;;;;;;8.52;71.76;102091.03;5041497;28;20039;-77
2022/11/27 07:23:25;;;;;;;0.10;0.10;;;;;;;8.53;72.15;102083.09;5047333;28;20025;-76
2022/11/27 07:25:51;;;;;;;0.10;0.10;;;;;;;8.55;71.73;102085.78;5044615;28;20401;-77
2022/11/27 07:28:17;;;;;;;0.10;0.10;;;;;;;8.54;72.42;102079.59;5046902;28;20411;-77
2022/11/27 07:30:44;;;;;;;0.10;0.10;;;;;;;8.57;71.71;102087.56;5037287;28;20030;-77
2022/11/27 07:33:10;;;;;;;0.20;0.20;;;;;;;8.54;72.01;102073.44;5048055;28;20041;-76
2022/11/27 07:35:36;;;;;;;0.10;0.10;;;;;;;8.57;72.32;102073.44;5054710;28;20032;-76
2022/11/27 07:38:02;;;;;;;0.20;0.20;;;;;;;8.52;71.98;102062.88;5037714;28;20033;-77
2022/11/27 07:40:28;;;;;;;0.10;0.10;;;;;;;8.59;72.16;102066.44;5036858;28;20041;-77
2022/11/27 07:42:54;;;;;;;0.10;0.10;;;;;;;8.60;71.65;102068.22;5048182;28;20052;-77
2022/11/27 07:45:20;;;;;;;0.10;0.10;;;;;;;8.58;71.69;102062.03;5038973;28;20098;-76
2022/11/27 07:47:46;;;;;;;0.15;0.15;;;;;;;8.58;72.13;102060.28;5045597;28;20028;-77
2022/11/27 07:50:12;;;;;;;0.10;0.10;;;;;;;8.60;71.50;102068.22;5045000;28;20040;-77
2022/11/27 07:52:39;;;;;;;0.10;0.10;;;;;;;8.61;71.58;102070.00;5046405;28;20060;-77
2022/11/27 07:55:05;;;;;;;0.38;0.38;;;;;;;8.61;71.80;102075.28;5043479;28;20033;-77
2022/11/27 07:57:31;;;;;;;0.10;0.10;;;;;;;8.65;71.42;102071.78;5036184;28;20033;-78
2022/11/27 07:59:57;;;;;;;0.10;0.10;;;;;;;8.69;71.32;102072.69;5038399;28;20025;-78
2022/11/27 08:02:23;;;;;;;0.43;0.43;;;;;;;8.72;71.81;102070.03;5041182;28;20038;-77
2022/11/27 08:04:49;;;;;;;0.17;0.17;;;;;;;8.63;71.47;102057.66;5043374;28;20075;-77
2022/11/27 08:07:15;;;;;;;0.10;0.10;;;;;;;8.65;71.64;102048.00;5039833;28;20033;-77
2022/11/27 08:09:41;;;;;;;0.20;0.20;;;;;;;8.67;71.28;102053.28;5041792;28;20033;-77
2022/11/27 08:12:07;;;;;;;0.10;0.10;;;;;;;8.72;71.57;102057.75;5035729;28;20022;-77
2022/11/27 08:14:34;;;;;;;0.15;0.15;;;;;;;8.72;71.65;102047.16;5033451;28;20040;-77
2022/11/27 08:17:00;;;;;;;0.10;0.10;;;;;;;8.75;71.48;102056.88;5034605;28;20509;-78
2022/11/27 08:19:26;;;;;;;0.10;0.10;;;;;;;8.75;71.28;102048.94;5044331;28;20028;-78
2022/11/27 08:21:52;;;;;;;0.32;0.32;;;;;;;8.81;71.17;102040.16;5038662;28;20041;-77
2022/11/27 08:24:18;;;;;;;0.10;0.10;;;;;;;8.81;71.13;102049.00;5034435;28;20033;-78
2022/11/27 08:26:44;;;;;;;0.10;0.10;;;;;;;8.81;71.36;102048.09;5036586;28;20463;-77
2022/11/27 08:29:11;;;;;;;1.90;0.63;;;;;;;8.81;71.93;102056.91;5035023;28;20041;-77
2022/11/27 08:31:37;;;;;;;0.30;0.30;;;;;;;8.83;71.69;102047.22;5039392;28;20056;-76
2022/11/27 08:34:03;;;;;;;0.10;0.10;;;;;;;8.84;71.69;102051.63;5041333;28;20041;-77
2022/11/27 08:36:29;;;;;;;0.10;0.10;;;;;;;8.82;71.63;102060.44;5039679;28;20048;-77
2022/11/27 08:38:55;;;;;;;0.20;0.20;;;;;;;8.81;71.91;102051.63;5040380;28;20473;-78
2022/11/27 08:41:22;;;;;;;0.10;0.10;;;;;;;8.81;72.09;102054.28;5048548;28;20067;-77
2022/11/27 08:43:48;;;;;;;0.20;0.20;;;;;;;8.84;71.87;102050.75;5043217;28;20025;-77
2022/11/27 08:46:14;;;;;;;0.20;0.20;;;;;;;8.86;71.87;102059.56;5048985;28;20025;-77
2022/11/27 08:48:41;;;;;;;1.63;1.52;;;;;;;8.88;72.30;102052.53;5053562;28;20033;-77
2022/11/27 08:51:11;;;;;;;0.10;0.10;;;;;;;8.81;71.90;102054.28;5052446;28;20032;-77
2022/11/27 08:53:38;;;;;;;4.38;3.20;;;;;;;8.82;72.41;102057.78;5048633;28;20103;-77
2022/11/27 08:56:12;;;;;;;0.20;0.20;;;;;;;8.86;72.51;102059.56;5043841;28;20056;-78
2022/11/27 08:58:39;;;;;;;1.75;0.65;;;;;;;8.86;72.05;102057.81;5046798;28;20116;-78
2022/11/27 09:01:10;;;;;;;0.20;0.20;;;;;;;8.88;72.13;102061.38;5037373;28;20091;-78
2022/11/27 09:03:37;;;;;;;0.10;0.10;;;;;;;8.89;72.27;102054.31;5037368;28;20021;-78
2022/11/27 09:06:06;;;;;;;2.92;1.95;;;;;;;8.91;72.24;102057.88;5036078;28;20029;-77
2022/11/27 09:08:32;;;;;;;0.10;0.10;;;;;;;8.90;72.26;102046.38;5042360;28;20029;-77
2022/11/27 09:11:00;;;;;;;0.17;0.17;;;;;;;8.94;72.34;102044.66;5041382;28;20041;-77
2022/11/27 09:13:26;;;;;;;0.20;0.20;;;;;;;8.92;72.60;102043.75;5050614;28;20025;-77
2022/11/27 09:15:54;;;;;;;1.95;1.85;;;;;;;8.93;72.55;102045.53;5042805;28;20033;-77
2022/11/27 09:18:20;;;;;;;0.10;0.10;;;;;;;8.89;72.53;102039.34;5037331;28;20033;-78
2022/11/27 09:20:55;;;;;;;0.20;0.20;;;;;;;8.99;72.44;102035.00;5048880;28;20397;-77
2022/11/27 09:23:21;;;;;;;0.82;0.82;;;;;;;8.97;72.93;102030.56;5053197;28;20033;-77
2022/11/27 09:25:48;;;;;;;1.00;0.60;;;;;;;8.94;72.92;102031.44;5049296;28;20115;-78
2022/11/27 09:28:14;;;;;;;1.45;1.13;;;;;;;8.98;73.19;102022.63;5053856;28;20021;-79
2022/11/27 09:30:40;;;;;;;1.13;1.13;;;;;;;9.01;73.30;102017.38;5047713;28;20035;-79
2022/11/27 09:33:06;;;;;;;0.40;0.40;;;;;;;9.08;72.68;102018.28;5044319;28;20049;-77
2022/11/27 09:35:35;;;;;;;0.50;0.50;;;;;;;9.01;73.12;102017.38;5041208;28;20087;-78
2022/11/27 09:38:01;;;;;;;0.20;0.20;;;;;;;9.01;72.96;102017.38;5052308;28;20500;-76
2022/11/27 09:40:28;;;;;;;0.30;0.30;;;;;;;8.96;73.09;102019.13;5036748;28;20113;-79
2022/11/27 09:43:01;;;;;;;0.20;0.20;;;;;;;9.03;73.21;102020.94;5034941;28;20034;-79
2022/11/27 09:45:28;;;;;;;0.63;0.63;;;;;;;9.01;72.94;102014.75;5036095;28;20502;-80
2022/11/27 09:48:00;;;;;;;0.45;0.45;;;;;;;9.08;72.89;102005.06;5041468;28;20029;-79
2022/11/27 09:50:32;;;;;;;0.20;0.20;;;;;;;9.07;72.95;102003.28;5038941;28;20033;-78
2022/11/27 09:53:12;;;;;;;0.10;0.10;;;;;;;9.13;73.04;102000.69;5049542;28;20029;-79
2022/11/27 09:55:42;;;;;;;0.10;0.10;;;;;;;9.03;73.17;101994.50;5042395;28;20032;-79
2022/11/27 10:00:51;;;;;;;0.43;0.43;;;;;;;9.09;73.20;101998.03;5140404;27;20402;-77
2022/11/27 10:03:24;;;;;;;0.10;0.10;;;;;;;9.16;73.34;101989.25;5123439;27;20033;-78
2022/11/27 10:08:45;;;;;;;0.13;0.13;;;;;;;9.19;72.96;101994.56;5008317;28;20420;-78
2022/11/27 10:14:33;;;;;;;0.80;0.68;;;;;;;9.17;73.14;101988.38;5135397;27;21146;-78
2022/11/27 10:17:23;;;;;;;0.20;0.20;;;;;;;9.12;72.72;101987.47;5126833;27;20387;-78
2022/11/27 10:25:23;;;;;;;0.40;0.40;;;;;;;9.12;72.89;101976.88;5053885;28;20056;-79
2022/11/27 10:28:20;;;;;;;0.10;0.10;;;;;;;9.17;72.84;101973.41;5060959;28;20064;-77
2022/11/27 10:30:55;;;;;;;0.40;0.40;;;;;;;9.18;73.11;101972.53;5054295;28;20032;-78
2022/11/27 10:33:33;;;;;;;0.10;0.10;;;;;;;9.16;72.98;101968.09;5044352;28;20041;-77
2022/11/27 10:36:00;;;;;;;0.20;0.20;;;;;;;9.16;72.80;101969.00;5054554;28;20071;-78
2022/11/27 10:38:30;;;;;;;0.10;0.10;;;;;;;9.22;73.06;101962.81;5064857;28;20049;-78
2022/11/27 10:43:57;;;;;;;0.10;0.10;;;;;;;9.27;72.81;101954.91;5094544;27;20933;-77
2022/11/27 10:46:30;;;;;;;0.50;0.50;;;;;;;9.23;73.03;101951.38;5090047;28;20040;-78
2022/11/27 10:48:57;;;;;;;0.13;0.13;;;;;;;9.19;72.88;101963.69;5089684;28;20074;-77
2022/11/27 10:51:37;;;;;;;0.17;0.17;;;;;;;9.28;73.11;101946.97;5090805;28;20032;-78
2022/11/27 10:54:05;;;;;;;0.10;0.10;;;;;;;9.25;73.37;101948.75;5089112;28;20016;-76
2022/11/27 10:56:59;;;;;;;8.55;3.10;;;;;;;9.24;73.04;101945.22;5092138;28;20357;-78
2022/11/27 10:59:34;;;;;;;0.10;0.10;;;;;;;9.23;72.98;101933.75;5085481;28;20525;-77
2022/11/27 11:02:02;;;;;;;0.10;0.10;;;;;;;9.24;73.06;101924.06;5085756;28;20248;-78
2022/11/27 11:04:30;;;;;;;0.32;0.32;;;;;;;9.26;72.92;101918.75;5087597;28;20051;-79
2022/11/27 11:06:57;;;;;;;0.20;0.20;;;;;;;9.19;72.72;101912.59;5089318;28;20083;-78
2022/11/27 11:09:28;;;;;;;0.45;0.45;;;;;;;9.28;73.00;101901.16;5092590;28;20064;-79
2022/11/27 11:12:16;;;;;;;0.20;0.20;;;;;;;9.29;73.29;101908.19;5090400;28;20080;-79
2022/11/27 11:14:52;;;;;;;0.28;0.28;;;;;;;9.31;73.00;101903.78;5086081;28;20036;-77
2022/11/27 11:17:24;;;;;;;0.10;0.10;;;;;;;9.31;73.00;101893.19;5089189;28;20020;-79
2022/11/27 11:19:50;;;;;;;0.20;0.20;;;;;;;9.33;73.45;101896.75;5085549;28;20024;-79
2022/11/27 11:22:17;;;;;;;0.20;0.20;;;;;;;9.33;73.23;101892.34;5107117;28;20024;-79
2022/11/27 11:24:47;;;;;;;0.10;0.10;;;;;;;9.38;73.25;101895.88;5089324;27;20524;-78
2022/11/27 11:27:18;;;;;;;0.10;0.10;;;;;;;9.38;73.45;101894.97;5088550;28;20020;-78
2022/11/27 11:32:26;;;;;;;0.10;0.10;;;;;;;9.44;73.31;101888.84;5053504;28;20413;-78
2022/11/27 11:34:57;;;;;;;0.10;0.10;;;;;;;9.49;72.97;101887.06;5038468;28;20038;-78
2022/11/27 11:40:19;;;;;;;0.10;0.10;;;;;;;9.51;73.25;101880.03;5083381;27;20417;-79
2022/11/27 11:43:06;;;;;;;1.10;1.10;;;;;;;9.60;72.74;101871.22;5088181;28;20047;-79
2022/11/27 11:45:33;;;;;;;0.10;0.10;;;;;;;9.57;73.06;101860.63;5096070;28;20028;-79
2022/11/27 11:48:18;;;;;;;0.10;0.10;;;;;;;9.58;72.64;101860.63;5098396;28;20036;-80
2022/11/27 11:50:54;;;;;;;0.10;0.10;;;;;;;9.58;72.65;101857.97;5088446;28;20058;-79
2022/11/27 11:56:44;;;;;;;0.10;0.10;;;;;;;9.63;72.72;101840.34;5066865;28;20406;-79
2022/11/27 12:04:56;;;;;;;0.10;0.10;;;;;;;9.77;72.59;101812.97;5091008;27;20900;-79
2022/11/27 12:07:55;;;;;;;0.10;0.10;;;;;;;9.83;71.98;101803.28;5072168;28;20111;-78
2022/11/27 12:10:29;;;;;;;0.10;0.10;;;;;;;9.86;71.95;101803.25;5069343;28;20040;-79
2022/11/27 12:13:10;;;;;;;0.20;0.20;;;;;;;9.86;71.78;101807.69;5065914;28;20128;-79
2022/11/27 12:15:53;;;;;;;0.38;0.38;;;;;;;9.91;71.43;101805.91;5070750;28;20093;-80
2022/11/27 12:21:16;;;;;;;0.30;0.30;;;;;;;9.94;71.17;101797.94;5111485;27;20413;-79
2022/11/27 12:24:01;;;;;;;0.20;0.20;;;;;;;9.92;70.98;101796.19;5095526;28;20059;-77
2022/11/27 12:30:05;;;;;;;0.17;0.17;;;;;;;9.97;70.62;101782.06;5084020;27;20133;-78
2022/11/27 12:35:50;;;;;;;0.10;0.10;;;;;;;9.99;70.37;101768.81;5088252;27;20413;-79
2022/11/27 12:38:42;;;;;;;0.20;0.20;;;;;;;9.97;70.08;101768.84;5091381;28;20047;-78
2022/11/27 12:41:37;;;;;;;0.20;0.20;;;;;;;9.99;69.80;101760.88;5067875;28;20037;-78